Time;durP1;ratioP1;P1;durP2;ratioP2;P2;SDS_P1;SDS_P2;PMS_P1;PMS_P2;Temp;Humidity;BMP_temperature;BMP_pressure;BME280_temperature;BME280_humidity;BME280_pressure;Samples;Min_cycle;Max_cycle;Signal;HPM_P1;HPM_P2
2023/05/22 00:01:45;;;;;;;42.30;21.73;;;;;;;20.75;62.02;99499.75;4935079;28;20204;-88
2023/05/22 00:04:12;;;;;;;42.20;21.70;;;;;;;20.69;62.48;99491.69;4952471;28;20612;-88
2023/05/22 00:06:42;;;;;;;45.28;21.77;;;;;;;20.68;62.39;99501.63;4924853;28;20121;-88
2023/05/22 00:09:09;;;;;;;39.58;20.42;;;;;;;20.67;62.60;99499.16;4937658;28;20647;-88
2023/05/22 00:11:36;;;;;;;39.13;20.83;;;;;;;20.65;62.41;99491.28;4937232;28;20517;-88
2023/05/22 00:14:02;;;;;;;39.95;21.08;;;;;;;20.63;62.75;99500.59;4947385;28;20137;-88
2023/05/22 00:16:29;;;;;;;39.58;21.55;;;;;;;20.56;62.93;99487.16;4955567;28;20054;-88
2023/05/22 00:18:56;;;;;;;46.80;22.50;;;;;;;20.55;62.96;99485.47;4923064;28;20066;-88
2023/05/22 00:21:23;;;;;;;47.17;21.05;;;;;;;20.50;62.69;99480.66;4943570;28;20066;-88
2023/05/22 00:23:50;;;;;;;44.20;21.60;;;;;;;20.47;63.12;99483.78;4929960;28;20126;-88
2023/05/22 00:26:17;;;;;;;43.28;21.83;;;;;;;20.50;62.54;99486.06;4928845;28;20046;-88
2023/05/22 00:28:44;;;;;;;39.42;21.08;;;;;;;20.49;62.71;99489.81;4939107;28;20569;-89
2023/05/22 00:31:10;;;;;;;38.03;19.80;;;;;;;20.45;62.87;99485.84;4941822;28;20053;-88
2023/05/22 00:33:37;;;;;;;43.47;21.27;;;;;;;20.50;62.83;99487.94;4947283;28;20114;-88
2023/05/22 00:36:04;;;;;;;39.08;19.92;;;;;;;20.46;63.01;99490.22;4960817;28;20047;-89
2023/05/22 00:38:33;;;;;;;39.58;20.65;;;;;;;20.42;62.73;99480.88;4949124;28;20417;-88
2023/05/22 00:41:03;;;;;;;42.58;22.05;;;;;;;20.41;62.95;99479.25;4958935;28;20047;-87
2023/05/22 00:43:30;;;;;;;45.13;21.92;;;;;;;20.35;63.07;99483.59;4937777;28;20493;-88
2023/05/22 00:45:57;;;;;;;42.70;21.60;;;;;;;20.35;63.24;99483.59;4937812;28;20101;-87
2023/05/22 00:48:25;;;;;;;40.25;21.10;;;;;;;20.34;63.39;99483.78;4953287;28;20081;-87
2023/05/22 00:50:54;;;;;;;39.92;21.33;;;;;;;20.33;63.31;99482.97;4935352;28;20071;-88
2023/05/22 00:53:23;;;;;;;40.33;21.88;;;;;;;20.32;63.50;99486.69;4926653;28;20061;-88
2023/05/22 00:55:50;;;;;;;42.47;21.15;;;;;;;20.27;63.67;99491.06;4938708;28;20471;-88
2023/05/22 00:58:18;;;;;;;39.42;20.60;;;;;;;20.31;63.28;99492.31;4936136;28;20051;-88
2023/05/22 01:00:45;;;;;;;42.25;20.33;;;;;;;20.27;63.43;99493.75;4916562;28;20051;-88
2023/05/22 01:03:13;;;;;;;41.90;21.13;;;;;;;20.26;63.87;99490.22;4917170;28;20047;-88
2023/05/22 01:05:40;;;;;;;41.00;21.80;;;;;;;20.25;63.44;99493.13;4921326;28;20051;-88
2023/05/22 01:08:07;;;;;;;41.05;20.92;;;;;;;20.18;63.86;99490.44;4935429;28;20046;-88
2023/05/22 01:10:35;;;;;;;41.17;20.75;;;;;;;20.12;63.88;99486.72;4960263;28;20051;-88
2023/05/22 01:13:14;;;;;;;43.83;21.20;;;;;;;20.02;63.72;99490.81;4913031;28;20469;-89
2023/05/22 01:15:53;;;;;;;39.85;20.83;;;;;;;20.01;63.77;99489.19;4938671;28;20050;-88
2023/05/22 01:18:33;;;;;;;46.28;21.92;;;;;;;19.93;64.97;99492.91;4944007;28;20381;-88
2023/05/22 01:21:09;;;;;;;46.33;21.48;;;;;;;19.92;64.79;99492.06;4913217;28;20047;-88
2023/05/22 01:24:14;;;;;;;42.03;20.73;;;;;;;19.77;64.89;99482.47;4935165;28;20047;-88
2023/05/22 01:27:06;;;;;;;38.53;20.20;;;;;;;19.73;64.87;99487.47;4951548;28;20046;-88
2023/05/22 01:29:41;;;;;;;43.90;21.45;;;;;;;19.86;64.46;99492.88;4908386;28;20059;-89
2023/05/22 01:32:12;;;;;;;42.35;21.92;;;;;;;19.85;64.52;99487.72;4943235;28;20055;-87
2023/05/22 01:34:42;;;;;;;39.70;21.80;;;;;;;19.84;64.28;99489.53;4936039;28;20091;-87
2023/05/22 01:37:10;;;;;;;46.85;22.40;;;;;;;19.83;64.37;99492.47;4919553;28;20419;-88
2023/05/22 01:39:37;;;;;;;41.30;20.70;;;;;;;19.86;64.00;99483.97;4925505;28;20046;-88
2023/05/22 01:42:04;;;;;;;41.67;20.55;;;;;;;19.88;64.40;99487.28;4950350;28;20050;-88
2023/05/22 01:44:32;;;;;;;47.38;21.30;;;;;;;19.86;64.48;99500.13;4922451;28;20119;-88
2023/05/22 01:47:04;;;;;;;48.20;21.90;;;;;;;19.80;64.19;99491.00;4942838;28;20113;-88
2023/05/22 01:49:32;;;;;;;48.08;22.67;;;;;;;19.81;64.43;99492.66;4933460;28;20126;-88
2023/05/22 01:52:11;;;;;;;44.15;21.58;;;;;;;19.73;64.62;99499.06;4949884;28;20446;-88
2023/05/22 01:54:42;;;;;;;44.75;20.65;;;;;;;19.79;64.20;99496.59;4951491;28;20058;-89
2023/05/22 01:57:18;;;;;;;42.50;21.85;;;;;;;19.70;64.57;99496.78;4945066;28;20054;-87
2023/05/22 01:59:48;;;;;;;42.22;21.52;;;;;;;19.81;64.31;99505.31;4956804;28;20552;-89
2023/05/22 02:02:17;;;;;;;43.22;21.80;;;;;;;19.82;64.17;99507.81;4940676;28;20050;-88
2023/05/22 02:04:51;;;;;;;39.40;20.58;;;;;;;19.85;64.14;99503.88;4963639;28;20079;-88
2023/05/22 02:07:20;;;;;;;38.22;20.48;;;;;;;19.89;63.96;99502.41;4962884;28;20050;-88
2023/05/22 02:09:47;;;;;;;39.10;21.10;;;;;;;19.89;63.95;99502.41;4924792;28;20046;-88
2023/05/22 02:12:14;;;;;;;48.35;22.15;;;;;;;19.85;64.05;99501.19;4960184;28;20517;-88
2023/05/22 02:14:42;;;;;;;42.63;21.88;;;;;;;19.79;64.14;99502.81;4940035;28;20047;-89
2023/05/22 02:17:09;;;;;;;43.70;21.77;;;;;;;19.75;64.22;99498.88;4939969;28;20042;-88
2023/05/22 02:19:35;;;;;;;44.67;21.77;;;;;;;19.76;64.35;99497.81;4927403;28;20134;-88
2023/05/22 02:22:02;;;;;;;43.53;22.33;;;;;;;19.75;64.36;99500.75;4928299;28;20102;-89
2023/05/22 02:24:30;;;;;;;42.72;21.83;;;;;;;19.70;64.23;99504.88;4950821;28;20051;-89
2023/05/22 02:26:57;;;;;;;40.42;20.00;;;;;;;19.65;64.40;99495.72;4937912;28;20050;-89
2023/05/22 02:29:24;;;;;;;43.38;21.02;;;;;;;19.64;64.43;99502.09;4939387;28;20043;-88
2023/05/22 02:31:53;;;;;;;40.70;20.80;;;;;;;19.60;64.49;99509.78;4940103;28;20406;-88
2023/05/22 02:34:20;;;;;;;37.97;19.95;;;;;;;19.57;64.32;99504.81;4927297;28;20406;-89
2023/05/22 02:36:47;;;;;;;47.13;22.50;;;;;;;19.52;64.43;99505.41;4940023;28;20051;-89
2023/05/22 02:39:14;;;;;;;46.40;21.27;;;;;;;19.47;64.59;99507.03;4953106;28;20094;-88
2023/05/22 02:41:42;;;;;;;43.80;21.63;;;;;;;19.38;65.16;99505.53;4932415;28;20047;-89
2023/05/22 02:44:09;;;;;;;43.95;20.63;;;;;;;19.38;65.04;99502.84;4925148;28;20126;-88
2023/05/22 02:46:36;;;;;;;45.15;21.77;;;;;;;19.39;64.96;99504.53;4925821;28;20174;-87
2023/05/22 02:49:03;;;;;;;40.60;19.80;;;;;;;19.36;65.11;99507.59;4924453;28;20043;-88
2023/05/22 02:51:29;;;;;;;36.28;20.20;;;;;;;19.31;64.70;99505.53;4941015;28;20365;-88
2023/05/22 02:53:56;;;;;;;39.97;19.58;;;;;;;19.26;65.32;99503.44;4940479;28;20520;-89
2023/05/22 02:56:26;;;;;;;45.53;20.95;;;;;;;19.27;64.98;99515.03;4919500;28;20058;-88
2023/05/22 02:58:55;;;;;;;45.65;21.83;;;;;;;19.24;65.00;99516.25;4953805;28;20051;-88
2023/05/22 03:01:21;;;;;;;41.33;21.40;;;;;;;19.22;65.04;99514.81;4950699;28;20047;-87
2023/05/22 03:03:49;;;;;;;44.30;21.10;;;;;;;19.16;64.93;99513.75;4950309;28;20063;-88
2023/05/22 03:06:17;;;;;;;42.05;21.80;;;;;;;19.13;64.98;99511.44;4954232;28;20054;-88
2023/05/22 03:08:44;;;;;;;38.42;19.88;;;;;;;19.09;65.28;99512.88;4935574;28;20050;-88
2023/05/22 03:11:10;;;;;;;44.05;21.92;;;;;;;19.11;65.27;99518.91;4905725;28;20047;-88
2023/05/22 03:13:37;;;;;;;42.85;21.80;;;;;;;19.07;65.28;99512.25;4940616;28;20130;-88
2023/05/22 03:16:04;;;;;;;42.95;20.13;;;;;;;19.09;65.35;99523.63;4940829;28;20560;-88
2023/05/22 03:18:31;;;;;;;40.47;20.27;;;;;;;19.08;65.38;99520.13;4933526;28;20400;-87
2023/05/22 03:20:58;;;;;;;42.22;21.25;;;;;;;19.05;65.04;99522.34;4943735;28;20049;-87
2023/05/22 03:23:25;;;;;;;40.70;20.30;;;;;;;18.99;65.26;99517.78;4941398;28;20526;-88
2023/05/22 03:25:52;;;;;;;44.65;20.50;;;;;;;18.95;65.15;99519.19;4920773;28;20043;-88
2023/05/22 03:28:21;;;;;;;42.78;20.42;;;;;;;18.94;64.92;99518.38;4926297;28;20067;-88
2023/05/22 03:30:48;;;;;;;40.30;20.83;;;;;;;18.89;65.39;99520.00;4929000;28;20053;-89
2023/05/22 03:33:20;;;;;;;39.15;19.90;;;;;;;18.87;65.68;99517.50;4934365;28;20085;-88
2023/05/22 03:35:48;;;;;;;43.25;21.42;;;;;;;18.92;65.66;99524.97;4937292;28;20055;-87
2023/05/22 03:38:15;;;;;;;39.88;20.75;;;;;;;18.89;65.81;99528.91;4931455;28;20047;-87
2023/05/22 03:40:42;;;;;;;41.40;22.13;;;;;;;18.91;65.35;99532.22;4932689;28;20139;-87
2023/05/22 03:43:09;;;;;;;40.28;19.35;;;;;;;18.86;65.57;99534.69;4931379;28;20046;-87
2023/05/22 03:45:37;;;;;;;43.17;21.98;;;;;;;18.83;65.59;99532.38;4952672;28;20061;-87
2023/05/22 03:48:04;;;;;;;41.00;20.95;;;;;;;18.87;65.70;99526.38;4936016;28;20418;-88
2023/05/22 03:50:31;;;;;;;43.85;21.38;;;;;;;18.85;65.65;99535.69;4959087;28;20138;-87
2023/05/22 03:52:59;;;;;;;42.92;21.42;;;;;;;18.87;65.08;99531.78;4946133;28;20047;-87
2023/05/22 03:55:26;;;;;;;43.72;19.88;;;;;;;18.85;65.35;99547.31;4915601;28;20063;-88
2023/05/22 03:57:53;;;;;;;40.53;20.83;;;;;;;18.90;65.12;99540.47;4941757;28;20047;-87
2023/05/22 04:00:20;;;;;;;44.10;20.63;;;;;;;18.91;64.73;99539.47;4962603;28;20145;-87
2023/05/22 04:02:49;;;;;;;40.47;20.35;;;;;;;19.02;64.92;99538.91;4923272;28;20069;-88
2023/05/22 04:05:16;;;;;;;36.80;19.70;;;;;;;19.23;64.94;99530.75;4961248;28;20051;-88
2023/05/22 04:07:43;;;;;;;42.13;20.15;;;;;;;19.42;64.87;99529.19;4946492;28;20053;-87
2023/05/22 04:10:10;;;;;;;47.88;22.88;;;;;;;19.75;64.23;99536.59;4963732;28;20179;-87
2023/05/22 04:12:37;;;;;;;43.15;22.58;;;;;;;20.03;63.61;99533.75;4918486;28;20122;-88
2023/05/22 04:15:05;;;;;;;48.42;22.75;;;;;;;20.39;62.51;99537.94;4927603;28;20058;-88
2023/05/22 04:17:32;;;;;;;41.42;21.70;;;;;;;20.73;61.60;99538.78;4930307;28;20043;-88
2023/05/22 04:19:59;;;;;;;44.85;22.02;;;;;;;20.89;60.90;99551.00;4947091;28;20055;-88
2023/05/22 04:22:26;;;;;;;44.65;22.42;;;;;;;20.78;61.21;99544.38;4929459;28;20051;-88
2023/05/22 04:24:53;;;;;;;45.03;21.17;;;;;;;20.67;61.50;99547.72;4934749;28;20047;-88
2023/05/22 04:27:21;;;;;;;42.08;21.33;;;;;;;20.51;61.61;99551.66;4926826;28;20051;-87
2023/05/22 04:29:49;;;;;;;41.08;20.30;;;;;;;20.44;61.77;99548.94;4945216;28;20411;-88
2023/05/22 04:32:17;;;;;;;41.20;21.38;;;;;;;20.33;62.23;99553.09;4948824;28;20047;-88
2023/05/22 04:34:46;;;;;;;41.88;21.48;;;;;;;20.22;62.37;99556.38;4931376;28;20606;-87
2023/05/22 04:37:15;;;;;;;46.90;22.50;;;;;;;20.16;62.69;99566.13;4921140;28;20055;-89
2023/05/22 04:39:41;;;;;;;43.22;20.33;;;;;;;20.08;62.86;99563.63;4935728;28;20047;-87
2023/05/22 04:42:08;;;;;;;41.10;21.75;;;;;;;19.99;63.14;99570.22;4942853;28;20138;-89
2023/05/22 04:44:35;;;;;;;40.60;21.27;;;;;;;19.93;63.51;99565.66;4920981;28;20229;-88
2023/05/22 04:47:03;;;;;;;45.13;22.13;;;;;;;19.91;63.07;99573.09;4925850;28;20078;-88
2023/05/22 04:49:33;;;;;;;46.60;22.70;;;;;;;19.87;63.45;99579.91;4914961;28;20075;-88
2023/05/22 04:52:03;;;;;;;46.92;23.05;;;;;;;19.83;63.36;99570.59;4937067;28;20082;-89
2023/05/22 04:54:30;;;;;;;49.63;24.02;;;;;;;19.79;63.82;99570.16;4942448;28;20433;-89
2023/05/22 04:56:57;;;;;;;44.38;22.55;;;;;;;19.83;63.93;99570.59;4938081;28;20051;-88
2023/05/22 04:59:25;;;;;;;50.05;22.48;;;;;;;19.82;63.90;99566.22;4927656;28;20614;-88
2023/05/22 05:01:52;;;;;;;43.85;23.63;;;;;;;19.77;64.22;99571.38;4932019;28;20043;-89
2023/05/22 05:04:19;;;;;;;50.35;22.08;;;;;;;19.68;64.51;99574.28;4933168;28;20053;-88
2023/05/22 05:06:46;;;;;;;48.22;23.58;;;;;;;19.68;64.36;99574.28;4938592;28;20051;-88
2023/05/22 05:09:13;;;;;;;45.28;23.40;;;;;;;19.68;64.48;99576.13;4931922;28;20570;-88
2023/05/22 05:11:40;;;;;;;47.58;22.38;;;;;;;19.74;64.72;99572.63;4949285;28;20313;-89
2023/05/22 05:14:07;;;;;;;48.05;22.92;;;;;;;19.74;64.86;99569.94;4949522;28;20051;-88
2023/05/22 05:16:34;;;;;;;48.95;23.52;;;;;;;19.73;64.52;99558.34;4964842;28;20047;-89
2023/05/22 05:19:02;;;;;;;48.35;23.85;;;;;;;19.76;64.29;99556.28;4982146;28;20053;-87
2023/05/22 05:21:30;;;;;;;54.53;25.20;;;;;;;19.81;64.32;99556.50;4980002;28;20051;-89
2023/05/22 05:23:59;;;;;;;49.15;24.33;;;;;;;19.86;64.15;99554.84;4970683;28;21924;-88
2023/05/22 05:26:26;;;;;;;51.33;25.10;;;;;;;19.83;64.11;99554.44;4954701;28;20394;-89
2023/05/22 05:28:55;;;;;;;56.97;26.23;;;;;;;19.93;64.16;99561.09;4967088;28;20050;-89
2023/05/22 05:31:29;;;;;;;55.33;25.45;;;;;;;19.92;64.32;99558.59;4925545;28;20506;-89
2023/05/22 05:34:31;;;;;;;53.83;24.83;;;;;;;19.94;64.06;99554.66;4926885;28;20054;-88
2023/05/22 05:37:01;;;;;;;58.15;25.17;;;;;;;19.99;64.23;99553.22;4929065;28;20055;-89
2023/05/22 05:39:29;;;;;;;54.45;24.83;;;;;;;20.01;64.42;99552.00;4926075;28;20057;-89
2023/05/22 05:41:58;;;;;;;53.50;25.83;;;;;;;20.08;64.39;99560.09;4964061;28;20154;-88
2023/05/22 05:44:26;;;;;;;51.83;24.83;;;;;;;20.13;64.48;99550.34;4947102;28;20070;-88
2023/05/22 05:46:53;;;;;;;57.22;25.50;;;;;;;20.12;64.54;99548.72;4945515;28;20059;-89
2023/05/22 05:49:21;;;;;;;56.35;27.00;;;;;;;20.20;64.34;99561.16;4945428;28;20129;-89
2023/05/22 05:51:48;;;;;;;45.95;24.67;;;;;;;20.23;64.49;99552.66;4926941;28;20067;-88
2023/05/22 05:54:16;;;;;;;54.92;25.33;;;;;;;20.28;64.46;99566.34;4930662;28;20049;-88
2023/05/22 05:56:45;;;;;;;51.15;25.58;;;;;;;20.29;64.65;99559.91;4932441;28;21153;-89
2023/05/22 05:59:12;;;;;;;52.88;24.20;;;;;;;20.34;64.55;99570.91;4940757;28;20081;-89
2023/05/22 06:01:56;;;;;;;52.75;24.08;;;;;;;20.36;64.28;99568.84;4933198;28;20046;-89
2023/05/22 06:04:27;;;;;;;51.38;23.95;;;;;;;20.45;64.56;99577.56;4950569;28;20525;-89
2023/05/22 06:06:54;;;;;;;53.78;24.70;;;;;;;20.45;64.51;99569.47;4932276;28;20532;-89
2023/05/22 06:09:29;;;;;;;57.72;25.40;;;;;;;20.47;64.76;99567.41;4944059;28;20182;-89
2023/05/22 06:12:13;;;;;;;60.77;27.17;;;;;;;20.50;65.13;99577.75;4940400;28;20047;-89
2023/05/22 06:14:43;;;;;;;51.80;25.80;;;;;;;20.52;65.01;99583.78;4948420;28;20449;-89
2023/05/22 06:17:11;;;;;;;56.55;25.42;;;;;;;20.58;65.12;99583.00;4955795;28;20058;-88
2023/05/22 06:19:41;;;;;;;56.78;26.17;;;;;;;20.60;65.16;99578.22;4932852;28;20056;-89
2023/05/22 06:22:08;;;;;;;51.58;25.77;;;;;;;20.66;65.58;99575.72;4947460;28;20047;-89
2023/05/22 06:24:37;;;;;;;56.85;26.15;;;;;;;20.67;65.67;99580.09;4919730;28;20051;-88
2023/05/22 06:27:10;;;;;;;55.83;26.35;;;;;;;20.69;65.65;99578.03;4946064;28;20501;-89
2023/05/22 06:29:38;;;;;;;52.70;26.00;;;;;;;20.72;65.72;99564.94;4946110;28;20054;-89
2023/05/22 06:32:06;;;;;;;50.92;25.70;;;;;;;20.77;65.78;99578.63;4922248;28;20497;-88
2023/05/22 06:34:34;;;;;;;53.65;25.98;;;;;;;20.83;65.66;99565.34;4936681;28;20122;-89
2023/05/22 06:37:02;;;;;;;54.00;25.08;;;;;;;20.85;65.62;99574.91;4929527;28;20102;-89
2023/05/22 06:39:34;;;;;;;66.30;28.33;;;;;;;20.84;65.84;99573.25;4947543;28;20051;-88
2023/05/22 06:42:17;;;;;;;61.95;26.02;;;;;;;20.86;65.43;99575.72;4934590;28;20047;-89
2023/05/22 06:45:03;;;;;;;57.80;26.40;;;;;;;20.87;64.66;99567.44;4950114;28;20156;-89
2023/05/22 06:47:38;;;;;;;57.63;26.88;;;;;;;20.88;64.73;99566.38;4960375;28;20080;-88
2023/05/22 06:50:09;;;;;;;57.88;26.88;;;;;;;20.90;64.85;99566.19;4950676;28;20046;-88
2023/05/22 06:52:37;;;;;;;54.90;23.88;;;;;;;20.92;64.25;99570.31;4969335;28;20105;-88
2023/05/22 06:55:06;;;;;;;58.10;26.55;;;;;;;20.93;63.43;99566.56;4963458;28;20097;-89
2023/05/22 06:57:45;;;;;;;58.30;25.08;;;;;;;20.95;63.82;99571.78;4917552;28;20058;-89
2023/05/22 07:00:12;;;;;;;59.92;26.33;;;;;;;21.01;64.40;99577.19;4942071;28;20047;-89
2023/05/22 07:03:08;;;;;;;61.15;25.20;;;;;;;21.01;64.62;99566.38;4938880;28;20058;-89
2023/05/22 07:05:42;;;;;;;63.38;26.15;;;;;;;21.05;64.42;99577.56;4940724;28;20558;-89
2023/05/22 07:08:09;;;;;;;53.00;25.27;;;;;;;21.11;63.85;99568.63;4925592;28;20062;-89
2023/05/22 07:10:37;;;;;;;53.88;25.55;;;;;;;21.13;63.58;99569.25;4967854;28;20046;-89
2023/05/22 07:13:04;;;;;;;54.15;24.73;;;;;;;21.16;63.42;99568.81;4931940;28;20122;-89
2023/05/22 07:15:32;;;;;;;53.08;24.73;;;;;;;21.18;63.11;99563.22;4923600;28;20517;-89
2023/05/22 07:18:02;;;;;;;55.22;25.48;;;;;;;21.25;63.45;99575.66;4928357;28;20063;-88
2023/05/22 07:20:29;;;;;;;54.53;24.85;;;;;;;21.25;62.92;99581.06;4957837;28;20047;-88
2023/05/22 07:23:06;;;;;;;59.38;26.48;;;;;;;21.27;63.43;99571.91;4933364;28;20078;-89
2023/05/22 07:25:35;;;;;;;61.75;26.20;;;;;;;21.25;62.90;99574.84;4943143;28;20057;-89
2023/05/22 07:28:07;;;;;;;63.83;26.92;;;;;;;21.33;62.99;99574.59;4949904;28;20082;-89
2023/05/22 07:30:46;;;;;;;60.88;28.80;;;;;;;21.31;62.53;99571.28;4936421;28;20051;-87
2023/05/22 07:33:13;;;;;;;57.03;26.70;;;;;;;21.30;62.11;99572.34;4910544;28;20501;-88
2023/05/22 07:35:42;;;;;;;59.33;26.92;;;;;;;21.33;62.99;99568.38;4960620;28;20461;-89
2023/05/22 07:38:09;;;;;;;64.40;26.55;;;;;;;21.38;62.77;99565.88;4972270;28;20058;-88
2023/05/22 07:40:37;;;;;;;67.15;29.05;;;;;;;21.42;62.41;99569.81;4947737;28;20433;-88
2023/05/22 07:43:04;;;;;;;54.60;25.90;;;;;;;21.42;62.55;99570.66;4929380;28;20047;-89
2023/05/22 07:45:31;;;;;;;65.50;28.30;;;;;;;21.46;62.91;99573.75;4937455;28;20046;-88
2023/05/22 07:48:03;;;;;;;56.65;25.83;;;;;;;21.48;63.41;99570.88;4947697;28;20130;-89
2023/05/22 07:50:33;;;;;;;59.57;27.23;;;;;;;21.50;62.75;99569.59;4945385;28;20498;-88
2023/05/22 07:53:03;;;;;;;56.22;26.92;;;;;;;21.57;62.57;99574.97;4928078;28;20088;-88
2023/05/22 07:55:32;;;;;;;57.05;27.63;;;;;;;21.54;62.34;99572.69;4920428;28;20051;-90
2023/05/22 07:58:02;;;;;;;64.28;29.05;;;;;;;21.52;62.34;99566.66;4933496;28;20123;-88
2023/05/22 08:00:34;;;;;;;55.72;25.13;;;;;;;21.58;62.83;99571.25;4923646;28;20043;-88
2023/05/22 08:03:01;;;;;;;57.50;27.15;;;;;;;21.64;62.79;99567.66;4958493;28;20062;-88
2023/05/22 08:05:28;;;;;;;58.70;26.58;;;;;;;21.65;63.35;99567.47;4936645;28;20047;-89
2023/05/22 08:07:55;;;;;;;59.15;26.67;;;;;;;21.73;62.70;99570.94;4940738;28;20111;-89
2023/05/22 08:10:22;;;;;;;60.85;26.95;;;;;;;21.67;62.25;99567.22;4938694;28;20109;-89
2023/05/22 08:12:49;;;;;;;57.30;27.40;;;;;;;21.71;62.73;99563.06;4927604;28;20141;-89
2023/05/22 08:15:16;;;;;;;69.70;29.73;;;;;;;21.74;62.92;99570.75;4943478;28;20050;-88
2023/05/22 08:17:43;;;;;;;48.15;23.17;;;;;;;21.75;62.72;99566.16;4957083;28;20076;-89
2023/05/22 08:20:10;;;;;;;61.13;27.40;;;;;;;21.75;63.21;99569.69;4930677;28;20049;-88
2023/05/22 08:22:38;;;;;;;61.35;27.73;;;;;;;21.75;62.97;99566.97;4918238;28;20060;-88
2023/05/22 08:25:05;;;;;;;66.10;28.63;;;;;;;21.77;62.71;99570.31;4942060;28;20055;-89
2023/05/22 08:27:32;;;;;;;65.53;28.95;;;;;;;21.78;62.52;99563.03;4949995;28;20417;-89
2023/05/22 08:29:59;;;;;;;57.50;27.35;;;;;;;21.80;62.74;99558.22;4944340;28;20066;-89
2023/05/22 08:32:26;;;;;;;55.35;25.25;;;;;;;21.82;62.71;99561.56;4934495;28;20055;-89
2023/05/22 08:34:55;;;;;;;56.85;26.20;;;;;;;21.85;62.78;99561.97;4947392;28;20046;-88
2023/05/22 08:37:22;;;;;;;58.55;25.55;;;;;;;21.89;63.06;99562.34;4915559;28;20075;-89
2023/05/22 08:39:49;;;;;;;60.97;28.60;;;;;;;21.93;62.90;99560.88;4940952;28;20059;-89
2023/05/22 08:42:16;;;;;;;61.30;28.10;;;;;;;21.95;62.69;99563.34;4952234;28;20070;-89
2023/05/22 08:44:42;;;;;;;55.25;26.35;;;;;;;21.96;62.86;99560.44;4973385;28;20190;-88
2023/05/22 08:47:12;;;;;;;59.85;27.75;;;;;;;22.00;63.11;99560.84;4950465;28;20050;-89
2023/05/22 08:49:39;;;;;;;58.20;27.35;;;;;;;22.04;62.93;99554.78;4953005;28;20058;-89
2023/05/22 08:52:13;;;;;;;52.55;25.88;;;;;;;22.04;63.05;99553.97;4949134;28;20070;-89
2023/05/22 08:54:42;;;;;;;71.25;30.98;;;;;;;22.11;63.03;99555.56;4930109;28;20050;-89
2023/05/22 08:57:09;;;;;;;64.20;29.27;;;;;;;22.09;62.50;99544.13;4945267;28;20134;-89
2023/05/22 08:59:38;;;;;;;69.63;30.23;;;;;;;22.17;63.21;99547.63;4946391;28;20142;-88
2023/05/22 09:02:06;;;;;;;59.42;27.58;;;;;;;22.16;63.44;99540.56;4952988;28;20106;-89
2023/05/22 09:04:32;;;;;;;54.03;25.90;;;;;;;22.19;63.92;99540.13;4899751;28;20051;-89
2023/05/22 09:07:04;;;;;;;68.20;30.25;;;;;;;22.26;64.36;99549.91;4944128;28;20565;-88
2023/05/22 09:09:35;;;;;;;59.50;27.57;;;;;;;22.26;64.56;99552.59;4940552;28;20043;-88
2023/05/22 09:12:07;;;;;;;56.17;27.48;;;;;;;22.30;64.39;99540.28;4936966;28;20123;-89
2023/05/22 09:14:41;;;;;;;63.08;29.88;;;;;;;22.28;63.95;99539.66;4949247;28;20051;-89
2023/05/22 09:17:10;;;;;;;57.35;27.17;;;;;;;22.35;63.83;99533.38;4934696;28;20047;-88
2023/05/22 09:19:37;;;;;;;60.08;28.73;;;;;;;22.37;63.95;99539.41;4949840;28;20130;-89
2023/05/22 09:22:05;;;;;;;59.30;28.13;;;;;;;22.40;64.39;99533.56;4946517;28;20043;-89
2023/05/22 09:24:42;;;;;;;52.83;24.80;;;;;;;22.35;63.84;99536.09;4945617;28;20044;-89
2023/05/22 09:27:10;;;;;;;59.42;27.17;;;;;;;22.45;64.28;99537.25;4926596;28;20058;-88
2023/05/22 09:29:50;;;;;;;55.50;27.02;;;;;;;22.39;64.47;99537.28;4929682;28;20574;-86
2023/05/22 09:32:17;;;;;;;60.78;27.75;;;;;;;22.49;63.97;99540.34;4960296;28;20051;-86
2023/05/22 09:34:47;;;;;;;60.50;28.52;;;;;;;22.49;64.13;99540.34;4942631;28;20074;-86
2023/05/22 09:37:15;;;;;;;62.10;28.50;;;;;;;22.57;64.47;99545.50;4952186;28;20126;-87
2023/05/22 09:39:43;;;;;;;57.75;28.45;;;;;;;22.59;64.31;99537.97;4931325;28;20046;-87
2023/05/22 09:42:13;;;;;;;63.67;31.23;;;;;;;22.62;64.59;99544.81;4947970;28;20407;-87
2023/05/22 09:44:43;;;;;;;62.90;29.92;;;;;;;22.65;64.40;99544.38;4946521;28;20039;-88
2023/05/22 09:47:10;;;;;;;58.60;27.75;;;;;;;22.67;64.56;99536.84;4950849;28;20069;-88
2023/05/22 09:49:44;;;;;;;66.05;29.27;;;;;;;22.67;64.94;99537.69;4955754;28;20055;-87
2023/05/22 09:52:11;;;;;;;60.42;29.15;;;;;;;22.75;64.78;99540.13;4927591;28;20062;-88
2023/05/22 09:54:53;;;;;;;62.03;27.95;;;;;;;22.75;65.02;99533.88;4985021;28;20440;-88
2023/05/22 09:57:25;;;;;;;61.88;31.38;;;;;;;22.81;65.39;99532.16;4984296;28;20648;-88
2023/05/22 09:59:56;;;;;;;67.50;29.15;;;;;;;22.84;65.07;99531.72;4976540;28;20057;-89
2023/05/22 10:02:25;;;;;;;65.65;30.67;;;;;;;22.88;64.63;99530.22;4961368;28;20058;-88
2023/05/22 10:04:53;;;;;;;65.85;30.77;;;;;;;22.89;63.63;99532.69;4951053;28;20053;-88
2023/05/22 10:07:29;;;;;;;69.97;32.08;;;;;;;22.88;64.50;99528.34;4948962;28;20050;-88
2023/05/22 10:10:03;;;;;;;64.50;30.70;;;;;;;22.91;64.04;99532.47;4959660;28;20556;-89
2023/05/22 10:12:32;;;;;;;63.72;30.00;;;;;;;22.95;64.35;99526.38;4926652;28;20047;-86
2023/05/22 10:15:00;;;;;;;63.45;29.63;;;;;;;22.98;64.85;99518.91;4958710;28;20046;-88
2023/05/22 10:17:27;;;;;;;86.25;32.35;;;;;;;22.96;64.76;99519.09;4965261;28;20926;-88
2023/05/22 10:19:55;;;;;;;59.75;29.30;;;;;;;23.00;65.36;99519.50;4964299;28;20569;-89
2023/05/22 10:22:24;;;;;;;53.80;26.85;;;;;;;23.04;64.35;99526.94;4985451;28;20049;-87
2023/05/22 10:24:51;;;;;;;55.85;27.98;;;;;;;23.05;63.99;99514.22;4922814;28;20039;-87
2023/05/22 10:27:18;;;;;;;55.78;26.63;;;;;;;23.08;63.41;99520.03;4933915;28;20055;-87
2023/05/22 10:29:55;;;;;;;55.35;27.48;;;;;;;23.08;62.88;99514.63;4957701;28;20467;-89
2023/05/22 10:32:40;;;;;;;60.90;27.63;;;;;;;23.10;62.46;99509.81;4961591;28;20045;-88
2023/05/22 10:35:14;;;;;;;62.67;25.88;;;;;;;23.12;62.17;99510.38;4944409;28;20042;-88
2023/05/22 10:37:50;;;;;;;54.15;26.83;;;;;;;23.21;62.10;99507.41;4944509;28;20047;-88
2023/05/22 10:40:27;;;;;;;60.17;27.92;;;;;;;23.17;62.54;99507.00;4961662;28;20121;-87
2023/05/22 10:42:58;;;;;;;59.05;28.08;;;;;;;23.20;62.89;99509.25;4946205;28;20062;-89
2023/05/22 10:45:28;;;;;;;58.25;29.17;;;;;;;23.22;63.09;99506.34;4947342;28;20042;-88
2023/05/22 10:48:10;;;;;;;61.25;29.33;;;;;;;23.14;63.70;99502.88;4939584;28;20047;-87
2023/05/22 10:50:38;;;;;;;64.63;28.85;;;;;;;23.26;63.28;99499.44;4935994;28;20050;-89
2023/05/22 10:53:26;;;;;;;62.15;28.42;;;;;;;23.26;62.73;99494.00;4966300;28;20057;-88
2023/05/22 10:55:55;;;;;;;60.33;29.45;;;;;;;23.35;62.88;99500.75;4975075;28;20052;-87
2023/05/22 10:58:27;;;;;;;60.03;29.65;;;;;;;23.35;63.38;99498.88;4945335;28;20055;-88
2023/05/22 11:01:12;;;;;;;64.32;29.10;;;;;;;23.33;63.63;99494.72;4955372;28;20045;-88
2023/05/22 11:03:57;;;;;;;59.08;28.75;;;;;;;23.35;62.65;99495.34;4956063;28;20520;-88
2023/05/22 11:06:31;;;;;;;50.60;26.38;;;;;;;23.42;62.71;99485.25;4965034;28;20050;-88
2023/05/22 11:08:59;;;;;;;59.97;28.48;;;;;;;23.49;62.43;99491.41;4963137;28;20070;-88
2023/05/22 11:11:26;;;;;;;61.35;29.50;;;;;;;23.51;61.66;99489.31;4946963;28;20047;-88
2023/05/22 11:14:02;;;;;;;58.13;29.00;;;;;;;23.48;61.37;99483.50;4943639;28;20137;-88
2023/05/22 11:16:32;;;;;;;59.58;27.83;;;;;;;23.51;61.39;99483.03;4936690;28;20517;-88
2023/05/22 11:19:04;;;;;;;58.72;28.30;;;;;;;23.54;60.30;99488.84;4948775;28;20443;-87
2023/05/22 11:21:48;;;;;;;57.35;27.50;;;;;;;23.56;59.22;99485.88;4962600;28;20054;-88
2023/05/22 11:24:16;;;;;;;58.80;28.15;;;;;;;23.57;59.38;99474.00;4945060;28;20078;-88
2023/05/22 11:26:43;;;;;;;58.70;27.42;;;;;;;23.62;59.99;99474.16;4933827;28;20124;-88
2023/05/22 11:29:10;;;;;;;54.83;28.38;;;;;;;23.59;60.32;99474.59;4931229;28;20455;-88